Time;durP1;ratioP1;P1;durP2;ratioP2;P2;SDS_P1;SDS_P2;PMS_P1;PMS_P2;Temp;Humidity;BMP_temperature;BMP_pressure;BME280_temperature;BME280_humidity;BME280_pressure;Samples;Min_cycle;Max_cycle;Signal;HPM_P1;HPM_P2
2022/10/18 00:02:18;;;;;;;19.92;10.55;;;;;;;19.99;40.54;102506.48;1713174;83;21051;-83
2022/10/18 00:04:45;;;;;;;18.65;10.90;;;;;;;19.99;40.51;102506.48;1713062;82;21737;-83
2022/10/18 00:07:12;;;;;;;16.90;10.30;;;;;;;19.98;40.52;102505.69;1713366;82;21784;-83
2022/10/18 00:09:38;;;;;;;17.95;10.68;;;;;;;19.98;40.51;102501.54;1713734;83;20989;-83
2022/10/18 00:12:05;;;;;;;16.50;9.98;;;;;;;19.98;40.53;102496.02;1713630;83;21040;-83
2022/10/18 00:14:31;;;;;;;16.15;9.65;;;;;;;19.98;40.51;102505.69;1713815;83;21063;-83
2022/10/18 00:16:57;;;;;;;19.90;10.38;;;;;;;19.99;40.50;102502.34;1709145;83;21548;-83
2022/10/18 00:19:23;;;;;;;18.55;10.40;;;;;;;19.98;40.50;102502.92;1713605;83;22161;-83
2022/10/18 00:21:50;;;;;;;18.98;10.65;;;;;;;19.98;40.49;102504.85;1713895;83;20986;-83
2022/10/18 00:24:16;;;;;;;18.90;10.58;;;;;;;19.98;40.49;102501.54;1714001;83;21519;-83
2022/10/18 00:26:42;;;;;;;21.95;11.78;;;;;;;19.98;40.50;102497.40;1713498;83;21480;-83
2022/10/18 00:29:12;;;;;;;19.23;10.08;;;;;;;19.98;40.48;102497.40;1716581;83;21092;-83
2022/10/18 00:31:38;;;;;;;19.05;10.82;;;;;;;19.97;40.49;102497.66;1755416;81;21259;-83
2022/10/18 00:34:08;;;;;;;20.92;10.38;;;;;;;19.97;40.46;102496.28;1716346;81;21023;-83
2022/10/18 00:36:35;;;;;;;20.43;10.23;;;;;;;19.96;40.50;102489.92;1755242;81;21115;-83
2022/10/18 00:39:03;;;;;;;18.60;10.28;;;;;;;19.97;40.50;102483.84;1729140;81;21024;-83
2022/10/18 00:41:31;;;;;;;17.75;10.05;;;;;;;19.96;40.47;102485.77;1734866;81;21497;-83
2022/10/18 00:44:18;;;;;;;18.02;10.65;;;;;;;19.97;40.49;102482.47;1761473;81;21601;-84
2022/10/18 00:46:47;;;;;;;17.17;9.73;;;;;;;19.95;40.48;102479.12;1702307;81;21138;-83
2022/10/18 00:49:27;;;;;;;20.08;10.18;;;;;;;19.95;40.46;102479.96;1761575;81;20902;-83
2022/10/18 00:52:20;;;;;;;20.15;10.43;;;;;;;19.95;40.46;102483.27;1760264;81;21068;-83
2022/10/18 00:54:47;;;;;;;20.43;10.98;;;;;;;19.94;40.46;102479.67;1761706;81;21618;-84
2022/10/18 00:57:13;;;;;;;18.15;10.45;;;;;;;19.93;40.46;102471.68;1761280;81;21195;-84
2022/10/18 00:59:40;;;;;;;16.50;10.32;;;;;;;19.93;40.45;102471.14;1761441;81;21502;-84
2022/10/18 01:02:06;;;;;;;19.20;10.30;;;;;;;19.92;40.46;102468.63;1761452;81;21036;-84
2022/10/18 01:04:32;;;;;;;16.87;10.48;;;;;;;19.91;40.46;102473.33;1761226;81;21050;-84
2022/10/18 01:14:51;;;;;;;20.05;10.82;;;;;;;19.90;40.46;102471.66;1761168;81;21581;-84
2022/10/18 01:17:31;;;;;;;16.65;10.35;;;;;;;19.88;40.43;102460.61;1759482;80;21819;-84
2022/10/18 01:20:50;;;;;;;17.48;10.40;;;;;;;19.88;40.43;102465.59;1763348;81;21087;-84
2022/10/18 01:23:49;;;;;;;18.37;10.60;;;;;;;19.86;40.46;102456.73;1683430;83;21529;-84
2022/10/18 01:26:33;;;;;;;17.98;9.60;;;;;;;19.85;40.45;102452.34;1729082;81;21148;-85
2022/10/18 01:29:25;;;;;;;16.87;10.35;;;;;;;19.85;40.49;102447.36;1719078;82;21527;-84
2022/10/18 01:32:00;;;;;;;20.72;10.55;;;;;;;19.84;40.49;102449.84;1665403;84;21566;-84
2022/10/18 01:34:30;;;;;;;18.77;9.75;;;;;;;19.84;40.51;102450.67;1741147;82;21123;-84
2022/10/18 01:36:56;;;;;;;19.07;10.80;;;;;;;19.84;40.52;102444.31;1723867;83;21504;-84
2022/10/18 01:39:32;;;;;;;16.62;10.30;;;;;;;19.83;40.53;102443.48;1671807;83;21310;-84
2022/10/18 01:41:58;;;;;;;18.02;10.20;;;;;;;19.84;40.56;102437.41;1746163;80;21068;-84
2022/10/18 01:44:26;;;;;;;15.28;9.65;;;;;;;19.83;40.54;102438.50;1721129;82;21067;-84
2022/10/18 01:46:53;;;;;;;19.23;11.22;;;;;;;19.84;40.56;102434.09;1746784;82;21048;-84
2022/10/18 01:49:19;;;;;;;17.15;9.70;;;;;;;19.84;40.52;102434.64;1746805;81;21079;-84
2022/10/18 01:51:46;;;;;;;16.40;9.80;;;;;;;19.83;40.57;102435.19;1747033;81;21216;-84
2022/10/18 01:54:14;;;;;;;15.43;10.03;;;;;;;19.83;40.56;102435.19;1723759;81;21515;-84
2022/10/18 01:57:11;;;;;;;17.57;10.32;;;;;;;19.83;40.53;102442.09;1716382;82;21044;-84
2022/10/18 01:59:49;;;;;;;17.20;10.00;;;;;;;19.84;40.53;102434.64;1717219;82;20992;-84
2022/10/18 02:02:54;;;;;;;16.75;10.18;;;;;;;19.83;40.53;102431.59;1716842;83;21088;-84
2022/10/18 02:05:31;;;;;;;14.90;9.73;;;;;;;19.83;40.53;102435.19;1717046;82;21566;-84
2022/10/18 02:08:26;;;;;;;19.50;10.60;;;;;;;19.83;40.52;102435.73;1716683;83;21048;-84
2022/10/18 02:11:08;;;;;;;15.58;9.10;;;;;;;19.81;40.51;102431.89;1717042;82;21021;-84
2022/10/18 02:13:41;;;;;;;16.67;9.75;;;;;;;19.82;40.53;102430.77;1716787;82;21108;-84
2022/10/18 02:16:11;;;;;;;15.93;9.68;;;;;;;19.81;40.51;102433.27;1717319;83;21061;-84
2022/10/18 02:18:41;;;;;;;15.65;9.65;;;;;;;19.80;40.52;102431.61;1694751;84;21379;-84
2022/10/18 02:21:09;;;;;;;17.10;10.25;;;;;;;19.81;40.52;102429.67;1694523;84;21057;-84
2022/10/18 02:23:35;;;;;;;18.92;10.32;;;;;;;19.79;40.53;102429.94;1717497;83;21076;-84
2022/10/18 02:26:07;;;;;;;16.15;10.23;;;;;;;19.80;40.52;102426.63;1687311;83;21282;-84
2022/10/18 02:28:34;;;;;;;18.02;9.95;;;;;;;19.80;40.53;102427.46;1671171;83;21072;-84
2022/10/18 02:31:29;;;;;;;17.50;10.03;;;;;;;19.80;40.53;102424.70;1674769;83;21185;-84
2022/10/18 02:34:24;;;;;;;15.45;9.40;;;;;;;19.80;40.52;102432.16;1710370;83;22212;-84
2022/10/18 02:36:53;;;;;;;16.35;9.78;;;;;;;19.80;40.50;102429.39;1710593;82;21519;-84
2022/10/18 02:39:24;;;;;;;15.05;9.65;;;;;;;19.79;40.50;102425.80;1680775;83;21011;-84
2022/10/18 02:41:50;;;;;;;18.25;9.48;;;;;;;19.79;40.52;102424.41;1710584;83;21029;-84
2022/10/18 02:44:16;;;;;;;17.27;10.13;;;;;;;19.79;40.52;102424.97;1681233;83;22164;-84
2022/10/18 02:46:42;;;;;;;14.78;9.33;;;;;;;19.78;40.52;102427.44;1710088;82;21452;-84
2022/10/18 02:49:09;;;;;;;16.10;9.75;;;;;;;19.78;40.50;102424.13;1705950;83;21555;-84
2022/10/18 02:51:35;;;;;;;16.37;10.50;;;;;;;19.78;40.49;102428.27;1705917;83;21088;-84
2022/10/18 02:54:01;;;;;;;19.12;10.40;;;;;;;19.78;40.49;102427.44;1680624;83;21012;-84
2022/10/18 02:56:27;;;;;;;17.07;9.50;;;;;;;19.78;40.50;102429.66;1682314;83;21524;-84
2022/10/18 02:58:53;;;;;;;19.90;10.15;;;;;;;19.79;40.52;102433.25;1710353;82;21041;-84
2022/10/18 03:01:20;;;;;;;14.40;9.90;;;;;;;19.78;40.52;102428.27;1710012;82;21029;-84
2022/10/18 03:03:46;;;;;;;15.90;9.43;;;;;;;19.78;40.49;102426.89;1710178;82;21053;-84
2022/10/18 03:06:12;;;;;;;16.23;9.78;;;;;;;19.78;40.52;102419.16;1710492;82;21516;-84
2022/10/18 03:08:38;;;;;;;16.10;9.45;;;;;;;19.78;40.48;102428.81;1658997;83;21067;-84
2022/10/18 03:11:05;;;;;;;15.95;9.68;;;;;;;19.78;40.48;102426.89;1710642;82;21076;-84
2022/10/18 03:13:32;;;;;;;15.60;9.70;;;;;;;19.79;40.48;102431.32;1710584;82;21464;-84
2022/10/18 03:15:59;;;;;;;14.50;9.25;;;;;;;19.80;40.47;102423.87;1710211;83;21093;-84
2022/10/18 03:18:25;;;;;;;14.83;8.78;;;;;;;19.81;40.46;102429.13;1710459;83;21399;-84
2022/10/18 03:20:57;;;;;;;16.42;9.60;;;;;;;19.84;40.45;102422.22;1710346;83;21117;-84
2022/10/18 03:23:24;;;;;;;14.25;9.00;;;;;;;19.86;40.42;102423.59;1710195;82;21080;-84
2022/10/18 03:25:50;;;;;;;15.78;9.68;;;;;;;19.90;40.34;102423.31;1710467;82;21073;-84
2022/10/18 03:28:16;;;;;;;15.43;9.90;;;;;;;19.95;40.30;102411.45;1710529;82;21536;-84
2022/10/18 03:30:43;;;;;;;14.65;8.90;;;;;;;19.99;40.23;102409.80;1682121;83;21068;-84
2022/10/18 03:33:09;;;;;;;14.83;8.73;;;;;;;20.06;40.17;102418.66;1710490;83;21159;-84
2022/10/18 03:35:35;;;;;;;14.03;9.50;;;;;;;20.14;40.10;102414.52;1710312;83;21025;-84
2022/10/18 03:38:02;;;;;;;11.03;8.25;;;;;;;20.20;39.98;102414.22;1710281;83;21452;-84
2022/10/18 03:40:28;;;;;;;11.95;8.95;;;;;;;20.27;39.92;102416.19;1710405;82;21112;-84
2022/10/18 03:42:54;;;;;;;12.25;8.70;;;;;;;20.35;39.84;102417.59;1710384;83;21040;-84
2022/10/18 03:45:21;;;;;;;13.60;8.25;;;;;;;20.43;39.76;102407.34;1729932;82;21167;-84
2022/10/18 03:47:47;;;;;;;13.45;8.93;;;;;;;20.50;39.64;102412.03;1739838;81;21432;-84
2022/10/18 03:50:13;;;;;;;19.10;9.78;;;;;;;20.58;39.55;102411.47;1710648;82;21060;-84
2022/10/18 03:52:39;;;;;;;16.15;8.35;;;;;;;20.68;39.46;102414.78;1739418;81;21342;-84
2022/10/18 03:55:07;;;;;;;14.28;9.03;;;;;;;20.75;39.36;102407.84;1739654;82;21022;-83
2022/10/18 03:57:39;;;;;;;14.15;8.65;;;;;;;20.86;39.23;102411.42;1739160;81;21106;-84
2022/10/18 04:00:07;;;;;;;13.03;8.48;;;;;;;20.95;39.15;102414.72;1738896;81;21496;-84
2022/10/18 04:02:33;;;;;;;13.25;9.13;;;;;;;21.05;39.01;102415.22;1739608;81;21069;-83
2022/10/18 04:04:59;;;;;;;14.18;9.13;;;;;;;21.13;38.94;102414.67;1698216;82;21019;-84
2022/10/18 04:07:26;;;;;;;14.50;8.40;;;;;;;21.22;38.81;102411.59;1739597;82;21014;-83
2022/10/18 04:09:52;;;;;;;13.88;8.93;;;;;;;21.30;38.71;102406.84;1705450;82;21077;-85
2022/10/18 04:12:18;;;;;;;13.98;8.63;;;;;;;21.39;38.66;102402.38;1705767;82;21005;-84
2022/10/18 04:14:51;;;;;;;14.35;9.50;;;;;;;21.49;38.56;102403.44;1611294;87;21130;-84
2022/10/18 04:17:17;;;;;;;15.95;9.03;;;;;;;21.57;38.47;102402.84;1631044;86;21099;-84
2022/10/18 04:19:43;;;;;;;13.30;8.55;;;;;;;21.66;38.38;102406.12;1662917;85;22185;-83
2022/10/18 04:22:11;;;;;;;15.40;9.10;;;;;;;21.75;38.30;102412.71;1685867;83;21483;-83
2022/10/18 04:24:37;;;;;;;13.93;9.28;;;;;;;21.83;38.17;102401.58;1685931;84;21033;-83
2022/10/18 04:27:11;;;;;;;16.82;9.93;;;;;;;21.89;38.07;102399.05;1675412;83;21535;-85
2022/10/18 04:29:37;;;;;;;16.65;9.40;;;;;;;21.96;37.97;102400.96;1693272;83;21500;-86
2022/10/18 04:32:04;;;;;;;16.45;10.28;;;;;;;22.00;37.90;102403.42;1699770;82;21074;-84
2022/10/18 04:34:30;;;;;;;17.17;10.38;;;;;;;22.05;37.78;102400.62;1690993;83;21950;-84
2022/10/18 04:36:56;;;;;;;20.45;10.78;;;;;;;22.09;37.70;102394.76;1694444;82;21064;-76
2022/10/18 04:39:23;;;;;;;18.90;10.35;;;;;;;22.14;37.62;102400.83;1741210;81;21040;-82
2022/10/18 04:41:49;;;;;;;21.52;11.28;;;;;;;22.18;37.52;102392.20;1772452;80;21020;-83
2022/10/18 04:44:15;;;;;;;25.15;11.90;;;;;;;22.21;37.45;102391.61;1738733;80;21076;-81
2022/10/18 04:46:42;;;;;;;29.55;12.60;;;;;;;22.25;37.36;102394.06;1745142;80;21225;-82
2022/10/18 04:49:08;;;;;;;30.60;12.95;;;;;;;22.25;37.22;102399.05;1749548;80;21015;-79
2022/10/18 04:51:35;;;;;;;42.58;13.20;;;;;;;22.28;37.10;102399.85;1742878;81;21159;-83
2022/10/18 04:54:01;;;;;;;36.10;13.72;;;;;;;22.29;36.97;102397.91;1742879;80;21075;-82
2022/10/18 04:56:28;;;;;;;33.38;13.50;;;;;;;22.31;36.83;102397.91;1721076;81;21064;-83
2022/10/18 04:58:54;;;;;;;38.80;14.68;;;;;;;22.31;36.75;102401.23;1697508;82;21204;-81
2022/10/18 05:01:20;;;;;;;37.98;15.18;;;;;;;22.30;36.64;102400.95;1714031;80;21636;-82
2022/10/18 05:03:55;;;;;;;44.65;14.53;;;;;;;22.28;36.62;102401.23;1735736;80;21127;-81
2022/10/18 05:06:21;;;;;;;33.85;15.03;;;;;;;22.30;36.56;102402.34;1715897;80;21122;-83
2022/10/18 05:08:48;;;;;;;48.45;18.52;;;;;;;22.32;36.59;102395.93;1696325;81;21062;-83
2022/10/18 05:11:15;;;;;;;50.67;19.05;;;;;;;22.35;36.59;102396.76;1703570;81;21259;-82
2022/10/18 05:13:42;;;;;;;46.75;19.17;;;;;;;22.34;36.60;102400.64;1708067;81;21076;-85
2022/10/18 05:16:09;;;;;;;41.80;18.70;;;;;;;22.33;36.67;102408.12;1707318;81;21033;-85
2022/10/18 05:18:36;;;;;;;46.50;19.07;;;;;;;22.33;36.73;102405.91;1730884;81;22351;-86
2022/10/18 05:21:04;;;;;;;39.58;17.42;;;;;;;22.32;36.79;102402.86;1697317;82;21028;-84
2022/10/18 05:23:31;;;;;;;37.75;17.95;;;;;;;22.31;36.83;102406.22;1742360;81;20976;-82
2022/10/18 05:26:03;;;;;;;46.58;19.50;;;;;;;22.31;36.90;102399.29;1699173;82;21115;-80
2022/10/18 05:28:29;;;;;;;37.08;16.57;;;;;;;22.30;36.94;102402.34;1753449;80;21573;-83
2022/10/18 05:31:01;;;;;;;42.55;18.42;;;;;;;22.28;37.10;102409.55;1753059;81;21229;-83
2022/10/18 05:33:28;;;;;;;38.25;19.50;;;;;;;22.25;37.16;102410.70;1733851;80;21100;-86
2022/10/18 05:35:55;;;;;;;43.40;20.40;;;;;;;22.21;37.07;102415.17;1726373;82;21153;-86
2022/10/18 05:38:21;;;;;;;42.62;18.45;;;;;;;22.17;36.95;102415.48;1725646;82;21701;-81
2022/10/18 05:40:47;;;;;;;46.60;19.92;;;;;;;22.12;37.11;102421.89;1723027;80;21113;-79
2022/10/18 05:43:16;;;;;;;42.13;19.10;;;;;;;22.08;37.28;102416.66;1725782;82;21088;-81
2022/10/18 05:45:50;;;;;;;53.52;19.70;;;;;;;22.06;37.42;102416.69;1724610;81;21128;-82
2022/10/18 05:48:16;;;;;;;49.93;18.90;;;;;;;22.05;37.58;102424.73;1737754;81;21824;-79
2022/10/18 05:50:44;;;;;;;52.78;21.23;;;;;;;22.04;37.68;102428.61;1741453;81;21109;-87
2022/10/18 05:53:11;;;;;;;42.40;20.02;;;;;;;22.00;37.81;102429.75;1747253;81;21663;-85
2022/10/18 05:55:37;;;;;;;39.73;21.07;;;;;;;21.93;37.99;102425.10;1740107;81;21105;-88
2022/10/18 05:58:03;;;;;;;48.60;19.48;;;;;;;21.91;38.14;102427.84;1745432;81;21054;-83
2022/10/18 06:00:33;;;;;;;43.85;19.12;;;;;;;21.86;38.35;102431.47;1742397;81;21141;-82
2022/10/18 06:03:00;;;;;;;47.43;18.70;;;;;;;21.82;38.60;102432.60;1741254;80;21066;-86
2022/10/18 06:05:26;;;;;;;46.85;18.32;;;;;;;21.80;38.81;102432.63;1737059;80;22059;-78
2022/10/18 06:07:52;;;;;;;54.93;18.60;;;;;;;21.74;38.99;102433.21;1740904;80;21046;-85
2022/10/18 06:10:20;;;;;;;41.50;18.95;;;;;;;21.72;39.08;102428.53;1737951;81;21070;-88
2022/10/18 06:12:46;;;;;;;47.78;18.37;;;;;;;21.70;39.24;102436.28;1735939;81;21308;-85
2022/10/18 06:15:19;;;;;;;39.53;18.35;;;;;;;21.67;39.37;102434.09;1749600;81;21081;-85
2022/10/18 06:17:45;;;;;;;43.68;17.82;;;;;;;21.66;39.47;102438.52;1723946;81;21113;-87
2022/10/18 06:20:11;;;;;;;45.50;18.45;;;;;;;21.65;39.62;102439.63;1724375;81;21019;-85
2022/10/18 06:22:37;;;;;;;45.75;18.32;;;;;;;21.62;39.75;102438.27;1751502;80;22032;-86
2022/10/18 06:25:05;;;;;;;40.48;17.98;;;;;;;21.60;39.84;102436.91;1748771;81;21968;-86
2022/10/18 06:27:33;;;;;;;44.23;17.82;;;;;;;21.58;39.92;102439.95;1743590;81;21101;-91
2022/10/18 06:30:06;;;;;;;37.08;18.48;;;;;;;21.56;40.01;102447.70;1733653;81;21757;-84
2022/10/18 06:32:34;;;;;;;36.60;17.60;;;;;;;21.55;40.13;102451.61;1720982;81;21708;-88
2022/10/18 06:35:00;;;;;;;42.40;18.12;;;;;;;21.53;40.18;102444.13;1722438;81;21604;-87
2022/10/18 06:37:29;;;;;;;43.65;18.20;;;;;;;21.52;40.26;102447.17;1743800;80;21097;-84
2022/10/18 06:40:01;;;;;;;39.60;18.00;;;;;;;21.49;40.33;102451.35;1729925;80;21096;-87
2022/10/18 06:42:27;;;;;;;38.58;18.77;;;;;;;21.49;40.37;102453.29;1729322;81;21099;-83
2022/10/18 06:44:54;;;;;;;36.00;18.12;;;;;;;21.46;40.41;102449.16;1712935;82;21080;-84
2022/10/18 06:47:20;;;;;;;41.35;17.65;;;;;;;21.45;40.44;102450.81;1668481;83;21116;-79
2022/10/18 06:49:48;;;;;;;42.98;18.65;;;;;;;21.41;40.38;102450.02;1713530;82;21401;-75
2022/10/18 06:52:21;;;;;;;40.88;18.02;;;;;;;21.35;40.51;102449.75;1689818;83;21076;-78
2022/10/18 06:54:46;;;;;;;42.60;18.50;;;;;;;21.29;40.62;102434.84;1691932;82;21089;-78
2022/10/18 06:57:12;;;;;;;46.53;19.05;;;;;;;21.24;40.73;102438.45;1690556;81;21197;-85
2022/10/18 06:59:38;;;;;;;50.03;19.92;;;;;;;21.20;40.81;102441.52;1702080;83;21325;-82
2022/10/18 07:02:08;;;;;;;47.33;20.57;;;;;;;21.15;40.75;102438.76;1679192;83;21156;-82
2022/10/18 07:04:34;;;;;;;57.40;19.77;;;;;;;21.08;40.71;102440.14;1709871;82;21541;-78
2022/10/18 07:07:01;;;;;;;63.28;21.55;;;;;;;21.02;40.83;102439.31;1742810;80;21169;-79
2022/10/18 07:09:27;;;;;;;53.63;20.68;;;;;;;21.01;40.94;102438.20;1694059;82;21104;-81
2022/10/18 07:11:53;;;;;;;56.23;18.15;;;;;;;21.01;41.00;102439.59;1737657;80;22007;-83
2022/10/18 07:14:20;;;;;;;44.98;18.77;;;;;;;21.01;41.14;102436.27;1738748;80;21099;-81
2022/10/18 07:16:46;;;;;;;57.60;20.02;;;;;;;21.02;41.26;102435.72;1738400;80;21070;-79
2022/10/18 07:19:13;;;;;;;43.40;18.32;;;;;;;21.01;41.35;102433.50;1735305;80;21015;-80
2022/10/18 07:21:40;;;;;;;48.73;18.90;;;;;;;21.02;41.42;102444.02;1692446;83;21096;-83
2022/10/18 07:24:06;;;;;;;40.30;17.50;;;;;;;21.02;41.47;102434.33;1733199;80;21127;-84
2022/10/18 07:26:33;;;;;;;55.35;20.50;;;;;;;21.02;41.60;102435.72;1736742;80;21569;-84
2022/10/18 07:29:07;;;;;;;42.00;19.25;;;;;;;21.03;41.66;102430.47;1700574;81;21075;-88
2022/10/18 07:31:33;;;;;;;44.55;19.07;;;;;;;21.03;41.68;102430.47;1711813;82;21611;-84
2022/10/18 07:34:00;;;;;;;40.10;18.05;;;;;;;21.03;41.75;102434.06;1691728;83;21590;-87
2022/10/18 07:36:26;;;;;;;47.20;19.30;;;;;;;21.02;41.81;102423.27;1709217;83;21111;-83
2022/10/18 07:38:52;;;;;;;47.70;20.20;;;;;;;21.02;41.87;102427.41;1704055;82;21167;-85
2022/10/18 07:41:19;;;;;;;35.75;18.23;;;;;;;21.01;41.87;102425.75;1710235;82;21127;-83
2022/10/18 07:43:47;;;;;;;52.05;19.30;;;;;;;21.01;41.90;102418.84;1703267;83;21083;-85
2022/10/18 07:46:14;;;;;;;37.73;19.65;;;;;;;21.00;41.96;102418.59;1704804;82;21638;-84
2022/10/18 07:48:41;;;;;;;45.43;19.02;;;;;;;21.00;42.00;102417.20;1699828;82;21135;-83
2022/10/18 07:51:07;;;;;;;40.30;18.87;;;;;;;20.96;41.79;102410.83;1698133;82;22128;-78
2022/10/18 07:53:34;;;;;;;45.80;18.80;;;;;;;20.92;41.75;102413.05;1707933;83;21060;-81
2022/10/18 07:56:06;;;;;;;46.35;18.57;;;;;;;20.90;42.17;102417.50;1703918;82;22194;-79
2022/10/18 07:58:33;;;;;;;40.10;17.17;;;;;;;20.87;42.11;102411.16;1717310;81;21053;-79
2022/10/18 08:01:07;;;;;;;44.18;17.23;;;;;;;20.89;42.17;102417.22;1706268;82;21517;-83
2022/10/18 08:03:35;;;;;;;49.63;17.15;;;;;;;20.89;42.29;102413.62;1725484;81;21053;-80
2022/10/18 08:06:02;;;;;;;42.43;17.67;;;;;;;20.89;42.36;102413.62;1693534;82;21151;-82
2022/10/18 08:08:28;;;;;;;44.75;16.42;;;;;;;20.86;42.23;102412.25;1720532;81;22156;-83
2022/10/18 08:10:55;;;;;;;54.42;17.23;;;;;;;20.85;42.17;102405.61;1714500;81;21053;-82
2022/10/18 08:13:21;;;;;;;38.83;16.12;;;;;;;20.86;42.10;102404.51;1713795;82;21233;-81
2022/10/18 08:15:56;;;;;;;48.48;17.82;;;;;;;20.86;41.92;102398.98;1715521;81;21123;-83
2022/10/18 08:18:24;;;;;;;45.25;15.53;;;;;;;20.86;41.71;102398.98;1724162;81;21072;-86
2022/10/18 08:20:50;;;;;;;31.40;14.73;;;;;;;20.85;41.69;102395.93;1730949;79;21101;-88
2022/10/18 08:23:17;;;;;;;35.30;14.75;;;;;;;20.86;41.54;102396.20;1712480;81;21690;-83
2022/10/18 08:25:44;;;;;;;35.00;14.15;;;;;;;20.85;41.42;102396.76;1696854;81;37755;-87
2022/10/18 08:28:12;;;;;;;32.23;14.38;;;;;;;20.85;41.26;102390.39;1689342;81;21897;-79
2022/10/18 08:30:39;;;;;;;32.75;13.88;;;;;;;20.84;41.12;102393.71;1663380;84;21091;-82
2022/10/18 08:33:05;;;;;;;30.40;13.78;;;;;;;20.83;41.08;102384.33;1710033;81;21043;-78
2022/10/18 08:35:31;;;;;;;40.17;15.32;;;;;;;20.82;41.04;102387.65;1734811;80;21123;-78
2022/10/18 08:37:58;;;;;;;32.40;14.30;;;;;;;20.82;41.10;102381.28;1739142;80;21039;-84
2022/10/18 08:40:26;;;;;;;35.23;14.47;;;;;;;20.81;41.15;102376.30;1704094;80;21197;-83
2022/10/18 08:43:32;;;;;;;41.53;15.60;;;;;;;20.81;41.33;102377.69;1736947;80;21071;-78
2022/10/18 08:45:59;;;;;;;41.23;13.35;;;;;;;20.82;41.82;102379.90;1744593;80;21103;-79
2022/10/18 08:48:36;;;;;;;43.28;14.28;;;;;;;20.82;42.37;102375.20;1711754;81;21052;-80
2022/10/18 08:51:42;;;;;;;35.13;12.18;;;;;;;20.81;42.12;102374.92;1708875;81;21123;-81
2022/10/18 08:54:21;;;;;;;32.65;11.33;;;;;;;20.80;41.97;102372.42;1736951;80;21653;-79
2022/10/18 08:57:01;;;;;;;31.00;10.38;;;;;;;20.72;41.41;102370.23;1717192;81;21087;-80
2022/10/18 08:59:35;;;;;;;32.98;11.35;;;;;;;20.68;40.95;102373.30;1742202;80;21120;-81
2022/10/18 09:02:16;;;;;;;33.65;10.82;;;;;;;20.63;40.67;102365.00;1743965;80;21417;-80
2022/10/18 09:05:21;;;;;;;33.35;10.63;;;;;;;20.61;40.66;102361.70;1701197;83;21082;-79
2022/10/18 09:08:13;;;;;;;31.37;12.25;;;;;;;20.61;40.75;102356.17;1688754;81;22279;-80
2022/10/18 09:11:00;;;;;;;32.90;10.90;;;;;;;20.60;41.01;102353.13;1713195;81;21408;-79
2022/10/18 09:13:41;;;;;;;30.48;10.55;;;;;;;20.63;41.24;102352.00;1719294;81;21523;-79
2022/10/18 09:16:12;;;;;;;23.70;9.83;;;;;;;20.67;41.45;102345.35;1750054;80;21104;-79
2022/10/18 09:19:06;;;;;;;26.02;9.55;;;;;;;20.69;41.55;102345.91;1728631;81;21522;-81
2022/10/18 09:21:54;;;;;;;30.02;9.28;;;;;;;20.70;41.48;102337.90;1707911;81;21356;-80
2022/10/18 09:24:40;;;;;;;18.70;9.38;;;;;;;20.70;41.38;102342.88;1755000;80;21136;-77
2022/10/18 09:27:17;;;;;;;32.42;11.95;;;;;;;20.70;41.30;102337.35;1739703;80;21258;-79
2022/10/18 09:30:08;;;;;;;25.00;9.55;;;;;;;20.70;41.34;102328.22;1701048;81;21728;-78
2022/10/18 09:32:49;;;;;;;29.25;9.60;;;;;;;20.70;41.27;102324.07;1713190;81;21115;-79
2022/10/18 09:35:30;;;;;;;21.27;8.25;;;;;;;20.69;41.23;102319.09;1706014;83;21164;-78
2022/10/18 09:38:07;;;;;;;22.65;9.10;;;;;;;20.68;41.12;102327.11;1706089;81;21688;-78
2022/10/18 09:40:35;;;;;;;25.25;8.63;;;;;;;20.69;41.01;102320.48;1708849;81;21115;-80
2022/10/18 09:43:19;;;;;;;16.65;7.53;;;;;;;20.68;40.75;102311.89;1710820;83;21448;-80
2022/10/18 09:45:46;;;;;;;14.90;7.67;;;;;;;20.68;40.50;102312.45;1676754;83;22035;-80
2022/10/18 09:48:58;;;;;;;22.73;8.00;;;;;;;20.65;40.36;102305.55;1719864;83;21819;-79
2022/10/18 09:51:30;;;;;;;19.75;7.10;;;;;;;20.64;40.30;102301.13;1711457;80;21039;-79
2022/10/18 09:54:29;;;;;;;30.15;7.08;;;;;;;20.63;40.35;102303.61;1721561;81;21170;-79
2022/10/18 09:57:06;;;;;;;17.15;5.65;;;;;;;20.65;40.50;102297.26;1728858;80;21870;-82
2022/10/18 09:59:41;;;;;;;36.88;6.65;;;;;;;20.69;40.39;102290.60;1704606;83;21153;-78
2022/10/18 10:02:14;;;;;;;37.53;6.75;;;;;;;20.69;40.22;102286.45;1713026;83;21084;-77
2022/10/18 10:04:40;;;;;;;22.82;6.20;;;;;;;20.69;40.25;102282.30;1714290;83;21130;-78
2022/10/18 10:07:12;;;;;;;25.75;6.62;;;;;;;20.65;40.25;102279.83;1706108;81;21232;-78
2022/10/18 10:09:47;;;;;;;20.70;5.92;;;;;;;20.63;40.35;102269.05;1715598;81;21087;-79
2022/10/18 10:12:34;;;;;;;20.15;6.37;;;;;;;20.63;40.48;102266.28;1704671;83;21070;-80
2022/10/18 10:15:22;;;;;;;13.72;5.90;;;;;;;20.63;40.56;102263.52;1710676;83;21615;-78
2022/10/18 10:18:04;;;;;;;14.78;5.70;;;;;;;20.63;40.66;102260.75;1718010;81;21067;-78
2022/10/18 10:20:36;;;;;;;21.25;7.10;;;;;;;20.65;40.74;102261.31;1727751;82;21115;-77
2022/10/18 10:23:09;;;;;;;23.80;6.80;;;;;;;20.66;40.78;102253.84;1716764;82;21086;-78
2022/10/18 10:25:38;;;;;;;15.53;5.90;;;;;;;20.65;40.88;102251.63;1709265;81;21040;-79
2022/10/18 10:28:16;;;;;;;28.85;6.40;;;;;;;20.66;40.92;102246.93;1712413;81;22595;-78
2022/10/18 10:30:42;;;;;;;20.77;6.95;;;;;;;20.68;40.96;102244.69;1710586;81;21111;-80
2022/10/18 10:33:36;;;;;;;12.10;6.28;;;;;;;20.68;40.98;102230.86;1697673;83;21097;-78
2022/10/18 10:36:06;;;;;;;14.93;6.25;;;;;;;20.67;41.04;102229.20;1711557;82;21016;-79
2022/10/18 10:38:32;;;;;;;14.68;6.10;;;;;;;20.66;41.10;102223.42;1712688;82;21736;-77
2022/10/18 10:40:59;;;;;;;18.80;6.42;;;;;;;20.66;41.11;102215.12;1696674;82;21259;-78
2022/10/18 10:43:33;;;;;;;15.43;6.22;;;;;;;20.66;41.12;102215.12;1692571;82;21036;-79
2022/10/18 10:46:05;;;;;;;17.55;6.30;;;;;;;20.64;41.14;102211.25;1704546;83;21034;-78
2022/10/18 10:48:53;;;;;;;12.73;7.10;;;;;;;20.65;41.18;102212.91;1712204;81;21684;-78
2022/10/18 10:51:35;;;;;;;19.37;6.15;;;;;;;20.67;41.33;102205.70;1714544;81;21076;-78
2022/10/18 10:54:20;;;;;;;21.02;6.28;;;;;;;20.66;41.24;102193.84;1718806;81;21141;-78
2022/10/18 10:57:21;;;;;;;37.50;7.20;;;;;;;20.65;41.17;102185.26;1710859;81;21185;-79
2022/10/18 10:59:52;;;;;;;26.48;6.58;;;;;;;20.65;41.12;102189.41;1704353;82;21230;-80
2022/10/18 11:02:33;;;;;;;18.90;6.25;;;;;;;20.64;41.18;102190.52;1674681;82;21087;-80
2022/10/18 11:05:23;;;;;;;25.55;6.90;;;;;;;20.65;41.20;102174.75;1650013;83;21031;-80
2022/10/18 11:07:54;;;;;;;13.98;5.17;;;;;;;20.65;41.23;102167.28;1689130;83;21216;-79
2022/10/18 11:10:23;;;;;;;18.12;6.17;;;;;;;20.67;41.25;102166.98;1697185;83;21557;-80
2022/10/18 11:13:17;;;;;;;18.25;6.08;;;;;;;20.67;41.32;102165.05;1701071;82;20889;-79
2022/10/18 11:15:59;;;;;;;12.45;5.17;;;;;;;20.67;41.38;102155.92;1690069;83;21031;-79
2022/10/18 11:18:42;;;;;;;15.63;5.83;;;;;;;20.67;41.56;102154.53;1705573;82;21680;-79
2022/10/18 11:21:14;;;;;;;14.95;6.00;;;;;;;20.67;41.60;102146.23;1689859;83;21843;-79
2022/10/18 11:23:41;;;;;;;19.35;5.80;;;;;;;20.65;41.48;102143.78;1709727;82;21069;-79
2022/10/18 11:26:31;;;;;;;12.60;6.12;;;;;;;20.64;41.39;102137.14;1702964;82;21080;-78
2022/10/18 11:29:18;;;;;;;14.10;5.80;;;;;;;20.61;41.19;102133.02;1689101;83;21184;-78
2022/10/18 11:32:19;;;;;;;13.28;5.25;;;;;;;20.60;41.29;102135.51;1703720;82;21041;-77
2022/10/18 11:35:26;;;;;;;13.83;5.20;;;;;;;20.59;41.33;102121.41;1713146;81;21125;-82
2022/10/18 11:38:11;;;;;;;21.93;5.95;;;;;;;20.60;41.33;102117.53;1722967;80;21099;-82
2022/10/18 11:41:14;;;;;;;16.10;5.20;;;;;;;20.60;41.35;102108.41;1712372;82;21655;-81
2022/10/18 11:43:56;;;;;;;14.95;5.78;;;;;;;20.60;41.27;102106.48;1714827;82;21134;-81